Time;durP1;ratioP1;P1;durP2;ratioP2;P2;SDS_P1;SDS_P2;PMS_P1;PMS_P2;Temp;Humidity;BMP_temperature;BMP_pressure;BME280_temperature;BME280_humidity;BME280_pressure;Samples;Min_cycle;Max_cycle;Signal;HPM_P1;HPM_P2
2023/03/05 00:02:12;;;;;;;4.30;2.80;;;3.70;99.90;;;;;;5045409;28;20199;-71
2023/03/05 00:04:37;;;;;;;10.63;3.00;;;3.60;99.90;;;;;;5049070;28;20225;-68
2023/03/05 00:07:04;;;;;;;9.93;3.33;;;3.60;99.90;;;;;;5046162;28;20418;-68
2023/03/05 00:09:30;;;;;;;3.00;2.53;;;3.60;99.90;;;;;;5042629;28;20183;-68
2023/03/05 00:11:55;;;;;;;8.67;2.50;;;3.50;99.90;;;;;;5042502;28;20437;-68
2023/03/05 00:14:21;;;;;;;8.00;2.63;;;3.40;99.90;;;;;;5045746;28;20438;-68
2023/03/05 00:16:47;;;;;;;9.97;3.20;;;3.30;99.90;;;;;;5046816;28;20194;-69
2023/03/05 00:19:13;;;;;;;6.90;3.00;;;3.30;99.90;;;;;;5026181;28;20423;-67
2023/03/05 00:21:40;;;;;;;7.70;3.10;;;3.20;99.90;;;;;;5036824;28;20588;-67
2023/03/05 00:24:10;;;;;;;6.23;2.93;;;3.20;99.90;;;;;;5040445;28;20159;-68
2023/03/05 00:26:38;;;;;;;3.37;3.07;;;3.20;99.90;;;;;;5045979;28;20436;-69
2023/03/05 00:29:04;;;;;;;9.27;3.70;;;3.20;99.90;;;;;;5043842;28;20409;-71
2023/03/05 00:31:32;;;;;;;14.87;3.63;;;3.00;99.90;;;;;;5042414;28;20448;-68
2023/03/05 00:34:01;;;;;;;9.47;3.13;;;3.00;99.90;;;;;;5045875;28;20424;-69
2023/03/05 00:36:27;;;;;;;9.57;3.10;;;2.90;99.90;;;;;;5038827;28;20442;-69
2023/03/05 00:38:54;;;;;;;6.90;3.53;;;2.90;99.90;;;;;;5043699;28;20414;-68
2023/03/05 00:41:19;;;;;;;6.63;3.17;;;3.00;99.90;;;;;;5042809;28;20454;-69
2023/03/05 00:43:45;;;;;;;14.20;4.00;;;3.00;99.90;;;;;;5045941;28;20436;-68
2023/03/05 00:46:11;;;;;;;10.33;3.83;;;3.00;99.90;;;;;;5036170;28;20653;-68
2023/03/05 00:48:36;;;;;;;12.90;3.57;;;2.90;99.90;;;;;;5042483;28;20249;-68
2023/03/05 00:51:02;;;;;;;9.63;3.03;;;2.90;99.90;;;;;;5037258;28;20195;-71
2023/03/05 00:53:28;;;;;;;9.13;3.30;;;2.90;99.90;;;;;;5038676;28;20186;-68
2023/03/05 00:55:53;;;;;;;6.50;3.37;;;2.90;99.90;;;;;;5033415;28;20418;-69
2023/03/05 00:58:19;;;;;;;6.73;3.97;;;2.90;99.90;;;;;;5037710;28;20215;-68
2023/03/05 01:00:45;;;;;;;13.23;4.70;;;2.90;99.90;;;;;;5040970;28;20274;-68
2023/03/05 01:03:10;;;;;;;9.00;2.97;;;2.90;99.90;;;;;;5027713;28;20425;-69
2023/03/05 01:05:36;;;;;;;9.77;3.13;;;2.90;99.90;;;;;;5046082;28;20641;-71
2023/03/05 01:08:02;;;;;;;6.60;2.90;;;2.80;99.90;;;;;;5050717;28;20171;-68
2023/03/05 01:10:29;;;;;;;13.33;2.07;;;2.90;99.90;;;;;;5038883;28;20205;-72
2023/03/05 01:12:55;;;;;;;5.63;2.37;;;2.90;99.90;;;;;;5034219;28;20256;-71
2023/03/05 01:15:21;;;;;;;4.73;2.50;;;2.80;99.90;;;;;;5042394;28;20981;-70
2023/03/05 01:17:47;;;;;;;3.50;2.50;;;2.80;99.90;;;;;;5047502;28;20453;-69
2023/03/05 01:20:14;;;;;;;4.07;2.10;;;2.80;99.90;;;;;;5037477;28;20449;-69
2023/03/05 01:22:40;;;;;;;5.40;2.50;;;2.90;99.90;;;;;;5042332;28;20182;-69
2023/03/05 01:25:06;;;;;;;8.27;2.53;;;2.80;99.90;;;;;;5039196;28;20897;-69
2023/03/05 01:27:33;;;;;;;7.30;1.60;;;2.80;99.90;;;;;;5040394;28;20502;-68
2023/03/05 01:29:59;;;;;;;9.17;1.57;;;2.80;99.90;;;;;;5041755;28;20755;-68
2023/03/05 01:32:24;;;;;;;8.03;2.10;;;2.80;99.90;;;;;;5034363;28;20416;-69
2023/03/05 01:34:50;;;;;;;5.63;2.03;;;2.70;99.90;;;;;;5046024;28;20186;-68
2023/03/05 01:37:15;;;;;;;10.43;3.10;;;2.70;99.90;;;;;;5042044;28;20201;-68
2023/03/05 01:39:41;;;;;;;3.17;2.00;;;2.70;99.90;;;;;;5040393;28;20175;-71
2023/03/05 01:42:07;;;;;;;6.30;1.73;;;2.70;99.90;;;;;;5033100;28;20545;-68
2023/03/05 01:44:33;;;;;;;8.83;2.93;;;2.70;99.90;;;;;;5043476;28;20176;-71
2023/03/05 01:46:58;;;;;;;1.60;1.47;;;2.70;99.90;;;;;;5041388;28;20648;-72
2023/03/05 01:49:33;;;;;;;8.07;1.33;;;2.60;99.90;;;;;;5041960;28;20414;-69
2023/03/05 01:52:16;;;;;;;6.43;2.13;;;2.60;99.90;;;;;;5045230;28;20222;-67
2023/03/05 01:54:54;;;;;;;2.60;1.73;;;2.60;99.90;;;;;;5028698;28;20419;-71
2023/03/05 01:57:41;;;;;;;4.47;1.80;;;2.50;99.90;;;;;;5043281;28;20805;-70
2023/03/05 02:00:13;;;;;;;5.17;2.10;;;2.50;99.90;;;;;;5044486;28;20863;-70
2023/03/05 02:02:43;;;;;;;5.47;1.70;;;2.40;99.90;;;;;;5044696;28;20413;-69
2023/03/05 02:05:11;;;;;;;7.10;1.70;;;2.40;99.90;;;;;;5035679;28;20415;-69
2023/03/05 02:07:39;;;;;;;4.10;1.60;;;2.40;99.90;;;;;;5043382;28;20425;-69
2023/03/05 02:10:15;;;;;;;2.50;1.77;;;2.30;99.90;;;;;;5035077;28;20450;-69
2023/03/05 02:12:41;;;;;;;9.30;1.63;;;2.30;99.90;;;;;;5044335;28;20441;-69
2023/03/05 02:15:07;;;;;;;3.70;1.47;;;2.30;99.90;;;;;;5040855;28;20418;-69
2023/03/05 02:17:33;;;;;;;2.30;1.37;;;2.20;99.90;;;;;;5044117;28;20457;-69
2023/03/05 02:20:06;;;;;;;3.50;1.13;;;2.20;99.90;;;;;;5041630;28;20528;-71
2023/03/05 02:22:31;;;;;;;4.10;1.30;;;2.20;99.90;;;;;;5034125;28;20562;-69
2023/03/05 02:24:57;;;;;;;3.47;1.90;;;2.20;99.90;;;;;;5034028;28;20429;-68
2023/03/05 02:27:33;;;;;;;1.60;1.50;;;2.20;99.90;;;;;;5048321;28;20664;-69
2023/03/05 02:30:00;;;;;;;2.70;1.40;;;2.20;99.90;;;;;;5022630;28;20578;-71
2023/03/05 02:32:26;;;;;;;3.13;1.50;;;2.20;99.90;;;;;;5037038;28;20421;-69
2023/03/05 02:34:51;;;;;;;5.17;1.53;;;2.20;99.90;;;;;;5040283;28;20584;-68
2023/03/05 02:37:17;;;;;;;9.50;2.10;;;2.20;99.90;;;;;;5040740;28;20458;-69
2023/03/05 02:39:43;;;;;;;1.80;1.60;;;2.10;99.90;;;;;;5041147;28;20678;-71
2023/03/05 02:42:08;;;;;;;1.33;1.23;;;2.10;99.90;;;;;;5041760;28;20211;-69
2023/03/05 02:44:34;;;;;;;1.33;1.20;;;2.10;99.90;;;;;;5035244;28;20186;-69
2023/03/05 02:47:00;;;;;;;2.10;1.70;;;2.10;99.90;;;;;;5041735;28;20175;-69
2023/03/05 02:49:26;;;;;;;7.23;1.97;;;2.10;99.90;;;;;;5039939;28;20241;-71
2023/03/05 02:51:51;;;;;;;3.27;1.40;;;2.10;99.90;;;;;;5039053;28;20282;-70
2023/03/05 02:54:17;;;;;;;1.50;1.40;;;2.10;99.90;;;;;;5033156;28;20510;-71
2023/03/05 02:56:42;;;;;;;1.93;1.63;;;2.10;99.90;;;;;;5021421;28;20265;-69
2023/03/05 02:59:08;;;;;;;3.27;1.60;;;2.10;99.90;;;;;;5040250;28;20176;-69
2023/03/05 03:01:34;;;;;;;2.57;1.30;;;2.10;99.90;;;;;;5038748;28;20194;-69
2023/03/05 03:04:00;;;;;;;4.50;1.63;;;2.10;99.90;;;;;;5034720;28;20233;-71
2023/03/05 03:06:25;;;;;;;3.20;1.70;;;2.10;99.90;;;;;;5032025;28;20254;-68
2023/03/05 03:08:51;;;;;;;7.50;1.40;;;2.10;99.90;;;;;;5035350;28;20175;-68
2023/03/05 03:11:17;;;;;;;2.80;1.57;;;2.10;99.90;;;;;;5040686;28;20229;-68
2023/03/05 03:13:43;;;;;;;3.57;1.43;;;2.10;99.90;;;;;;5044929;28;20199;-70
2023/03/05 03:16:11;;;;;;;4.10;1.83;;;2.20;99.90;;;;;;5042170;28;20481;-67
2023/03/05 03:18:36;;;;;;;6.03;2.23;;;2.10;99.90;;;;;;5030311;28;20168;-68
2023/03/05 03:21:03;;;;;;;1.50;1.30;;;2.10;99.90;;;;;;5038764;28;20437;-71
2023/03/05 03:23:29;;;;;;;6.63;1.40;;;2.20;99.90;;;;;;5028928;28;20211;-67
2023/03/05 03:25:56;;;;;;;1.43;1.27;;;2.20;99.90;;;;;;5045330;28;20436;-69
2023/03/05 03:28:21;;;;;;;2.30;1.53;;;2.20;99.90;;;;;;5040795;28;20560;-69
2023/03/05 03:30:47;;;;;;;4.93;2.10;;;2.20;99.90;;;;;;5046702;28;20464;-69
2023/03/05 03:33:13;;;;;;;6.67;1.43;;;2.20;99.90;;;;;;5044661;28;21780;-71
2023/03/05 03:35:38;;;;;;;1.47;1.23;;;2.20;99.90;;;;;;5046480;28;20167;-72
2023/03/05 03:38:04;;;;;;;14.53;3.47;;;2.20;99.90;;;;;;5046006;28;20210;-69
2023/03/05 03:40:30;;;;;;;1.83;1.60;;;2.20;99.90;;;;;;5044192;28;20310;-69
2023/03/05 03:42:55;;;;;;;2.70;1.33;;;2.20;99.90;;;;;;5043105;28;20226;-69
2023/03/05 03:45:21;;;;;;;1.60;1.50;;;2.20;99.90;;;;;;5040815;28;20566;-68
2023/03/05 03:47:50;;;;;;;3.60;1.93;;;2.20;99.90;;;;;;5046192;28;20179;-73
2023/03/05 03:50:17;;;;;;;2.83;1.33;;;2.20;99.90;;;;;;5042974;28;20227;-68
2023/03/05 03:52:43;;;;;;;5.53;2.07;;;2.20;99.90;;;;;;5046527;28;20463;-71
2023/03/05 03:55:09;;;;;;;6.60;1.50;;;2.20;99.90;;;;;;5045206;28;20414;-69
2023/03/05 03:57:35;;;;;;;2.30;1.97;;;2.20;99.90;;;;;;5046367;28;20206;-68
2023/03/05 04:00:05;;;;;;;1.13;1.00;;;2.20;99.90;;;;;;5045957;28;20810;-69
2023/03/05 04:02:31;;;;;;;2.80;1.60;;;2.10;99.90;;;;;;5033588;28;20454;-68
2023/03/05 04:04:57;;;;;;;1.73;1.60;;;2.10;99.90;;;;;;5045305;28;20631;-68
2023/03/05 04:07:23;;;;;;;2.10;1.20;;;2.10;99.90;;;;;;5045544;28;20417;-69
2023/03/05 04:09:49;;;;;;;5.60;1.60;;;2.00;99.90;;;;;;5045843;28;20260;-69
2023/03/05 04:12:17;;;;;;;1.50;1.40;;;2.00;99.90;;;;;;5044949;28;20783;-69
2023/03/05 04:14:44;;;;;;;2.30;1.30;;;1.90;99.90;;;;;;5045749;28;20744;-69
2023/03/05 04:17:10;;;;;;;1.77;1.50;;;1.90;99.90;;;;;;5042109;28;20492;-72
2023/03/05 04:19:36;;;;;;;2.07;1.40;;;1.90;99.90;;;;;;5045507;28;20969;-69
2023/03/05 04:22:01;;;;;;;2.10;1.93;;;1.80;99.90;;;;;;5045542;28;20410;-71
2023/03/05 04:24:27;;;;;;;6.47;1.70;;;1.80;99.90;;;;;;5042153;28;20172;-69
2023/03/05 04:26:53;;;;;;;1.83;1.60;;;1.80;99.90;;;;;;5033872;28;20184;-69
2023/03/05 04:29:18;;;;;;;3.10;1.50;;;1.70;99.90;;;;;;5042193;28;20667;-69
2023/03/05 04:31:44;;;;;;;3.37;1.70;;;1.70;99.90;;;;;;5046237;28;20199;-69
2023/03/05 04:34:10;;;;;;;5.33;1.30;;;1.70;99.90;;;;;;5045589;28;20203;-69
2023/03/05 04:36:35;;;;;;;2.63;1.90;;;1.60;99.90;;;;;;5045919;28;20194;-69
2023/03/05 04:39:01;;;;;;;2.90;1.60;;;1.60;99.90;;;;;;5046809;28;20171;-69
2023/03/05 04:41:27;;;;;;;2.33;1.50;;;1.60;99.90;;;;;;5047139;28;20441;-69
2023/03/05 04:43:52;;;;;;;5.87;1.90;;;1.50;99.90;;;;;;5053093;28;20167;-70
2023/03/05 04:46:18;;;;;;;4.00;1.53;;;1.50;99.90;;;;;;5036609;28;20590;-68
2023/03/05 04:48:43;;;;;;;1.77;1.50;;;1.50;99.90;;;;;;5046378;28;20182;-68
2023/03/05 04:51:09;;;;;;;3.63;1.33;;;1.50;99.90;;;;;;5037678;28;20199;-70
2023/03/05 04:53:35;;;;;;;1.30;1.20;;;1.40;99.90;;;;;;5047456;28;20193;-71
2023/03/05 04:56:00;;;;;;;5.20;2.20;;;1.40;99.90;;;;;;5047450;28;20718;-68
2023/03/05 04:58:26;;;;;;;2.40;1.93;;;1.40;99.90;;;;;;5044930;28;20171;-68
2023/03/05 05:00:52;;;;;;;3.00;1.60;;;1.40;99.90;;;;;;5047860;28;20191;-69
2023/03/05 05:03:17;;;;;;;2.90;1.57;;;1.40;99.90;;;;;;5038858;28;20478;-68
2023/03/05 05:05:43;;;;;;;2.13;1.30;;;1.40;99.90;;;;;;5041414;28;20175;-71
2023/03/05 05:08:09;;;;;;;2.03;1.30;;;1.40;99.90;;;;;;5038295;28;20184;-68
2023/03/05 05:10:38;;;;;;;4.10;1.80;;;1.40;99.90;;;;;;5043310;28;20191;-72
2023/03/05 05:13:04;;;;;;;8.60;2.00;;;1.40;99.90;;;;;;5041468;28;20508;-69
2023/03/05 05:15:31;;;;;;;7.33;2.30;;;1.40;99.90;;;;;;5048515;28;20418;-68
2023/03/05 05:17:56;;;;;;;2.20;1.90;;;1.40;99.90;;;;;;5037492;28;20483;-69
2023/03/05 05:20:22;;;;;;;3.90;1.20;;;1.40;99.90;;;;;;5049373;28;20433;-69
2023/03/05 05:22:48;;;;;;;3.00;1.30;;;1.40;99.90;;;;;;5041571;28;20164;-70
2023/03/05 05:25:13;;;;;;;1.93;1.60;;;1.30;99.90;;;;;;5042432;28;20170;-68
2023/03/05 05:27:39;;;;;;;1.20;1.10;;;1.30;99.90;;;;;;5044977;28;20796;-68
2023/03/05 05:30:06;;;;;;;3.93;1.33;;;1.30;99.90;;;;;;5041078;28;20199;-68
2023/03/05 05:32:32;;;;;;;2.10;1.40;;;1.30;99.90;;;;;;5046542;28;20472;-71
2023/03/05 05:34:58;;;;;;;3.00;1.70;;;1.30;99.90;;;;;;5036683;28;20409;-71
2023/03/05 05:37:25;;;;;;;2.73;1.33;;;1.20;99.90;;;;;;5047836;28;20853;-71
2023/03/05 05:39:51;;;;;;;5.80;1.33;;;1.20;99.90;;;;;;5040407;28;20841;-69
2023/03/05 05:42:19;;;;;;;2.87;1.83;;;1.10;99.90;;;;;;5050394;28;20491;-69
2023/03/05 05:44:46;;;;;;;1.87;1.63;;;1.10;99.90;;;;;;5043358;28;20419;-69
2023/03/05 05:47:12;;;;;;;4.93;3.97;;;1.10;99.90;;;;;;5041456;28;20436;-69
2023/03/05 05:49:38;;;;;;;1.67;1.57;;;1.10;99.90;;;;;;5045018;28;20410;-68
2023/03/05 05:52:04;;;;;;;1.53;1.20;;;1.20;99.90;;;;;;5040454;28;20501;-69
2023/03/05 05:54:30;;;;;;;2.00;1.43;;;1.10;99.90;;;;;;5047485;28;20638;-68
2023/03/05 05:56:55;;;;;;;1.73;1.63;;;1.20;99.90;;;;;;5040055;28;20503;-71
2023/03/05 05:59:21;;;;;;;3.53;1.63;;;1.20;99.90;;;;;;5048259;28;20171;-69
2023/03/05 06:01:46;;;;;;;3.80;1.50;;;1.20;99.90;;;;;;5040160;28;20322;-71
2023/03/05 06:04:12;;;;;;;2.93;2.73;;;1.30;99.90;;;;;;5032279;28;20172;-69
2023/03/05 06:06:37;;;;;;;5.77;2.00;;;1.30;99.90;;;;;;5035857;28;20195;-68
2023/03/05 06:09:03;;;;;;;3.93;1.73;;;1.40;99.90;;;;;;5040167;28;20255;-69
2023/03/05 06:11:29;;;;;;;2.90;1.33;;;1.40;99.90;;;;;;5047332;28;20282;-68
2023/03/05 06:13:55;;;;;;;1.50;1.30;;;1.40;99.90;;;;;;5039981;28;20414;-68
2023/03/05 06:16:23;;;;;;;4.03;2.03;;;1.40;99.90;;;;;;5022827;28;20541;-68
2023/03/05 06:18:50;;;;;;;13.77;2.80;;;1.40;99.90;;;;;;5039567;28;20167;-68
2023/03/05 06:21:17;;;;;;;4.20;1.60;;;1.50;99.90;;;;;;5042249;28;20454;-68
2023/03/05 06:23:44;;;;;;;4.30;1.70;;;1.50;99.90;;;;;;5043309;28;20405;-68
2023/03/05 06:26:13;;;;;;;2.30;1.97;;;1.60;99.90;;;;;;5042745;28;20407;-68
2023/03/05 06:28:38;;;;;;;3.10;1.80;;;1.60;99.90;;;;;;5043479;28;20410;-68
2023/03/05 06:31:13;;;;;;;8.50;2.50;;;1.60;99.90;;;;;;5041566;28;20487;-68
2023/03/05 06:33:39;;;;;;;5.57;1.83;;;1.70;99.90;;;;;;5043827;28;20171;-69
2023/03/05 06:36:07;;;;;;;3.40;1.50;;;1.80;99.90;;;;;;5042177;28;20405;-69
2023/03/05 06:38:33;;;;;;;6.80;2.17;;;1.80;99.90;;;;;;5043677;28;20410;-69
2023/03/05 06:41:08;;;;;;;3.37;2.00;;;1.90;99.90;;;;;;5043599;28;20800;-69
2023/03/05 06:43:36;;;;;;;2.10;1.67;;;2.10;99.90;;;;;;5043575;28;21068;-68
2023/03/05 06:46:16;;;;;;;4.37;2.03;;;2.30;99.90;;;;;;5043426;28;20405;-70
2023/03/05 06:48:42;;;;;;;6.80;2.27;;;2.40;99.90;;;;;;5037141;28;20949;-69
2023/03/05 06:51:29;;;;;;;3.70;2.03;;;2.50;99.90;;;;;;5041880;28;20656;-72
2023/03/05 06:53:57;;;;;;;7.50;2.27;;;2.50;99.90;;;;;;5042721;28;20533;-70
2023/03/05 06:56:23;;;;;;;1.90;1.37;;;2.40;99.90;;;;;;5040780;28;20492;-69
2023/03/05 06:58:50;;;;;;;3.70;1.30;;;2.40;99.90;;;;;;5045267;28;20410;-68
2023/03/05 07:01:17;;;;;;;2.47;2.33;;;2.40;99.90;;;;;;5040160;28;20696;-70
2023/03/05 07:03:43;;;;;;;1.37;1.27;;;2.50;99.90;;;;;;5039156;28;20821;-70
2023/03/05 07:08:43;;;;;;;2.20;1.20;;;2.60;99.90;;;;;;4975523;28;20208;-64
2023/03/05 07:11:15;;;;;;;3.10;2.30;;;2.60;99.90;;;;;;4981395;28;20406;-65
2023/03/05 07:13:41;;;;;;;3.67;1.17;;;2.60;99.90;;;;;;4982406;28;20690;-64
2023/03/05 07:16:14;;;;;;;3.80;1.57;;;2.70;99.90;;;;;;4981465;28;20401;-63
2023/03/05 07:18:39;;;;;;;2.60;1.27;;;2.80;99.90;;;;;;4970750;28;20260;-66
2023/03/05 07:21:06;;;;;;;2.67;0.90;;;2.80;99.90;;;;;;4976360;28;20781;-63
2023/03/05 07:23:33;;;;;;;1.20;1.10;;;2.90;99.90;;;;;;4981408;28;20209;-66
2023/03/05 07:26:04;;;;;;;4.77;2.90;;;3.00;99.90;;;;;;4978942;28;20416;-66
2023/03/05 07:28:31;;;;;;;2.80;1.10;;;2.90;99.90;;;;;;4971412;28;20413;-67
2023/03/05 07:30:59;;;;;;;4.20;1.93;;;2.80;99.90;;;;;;4971968;28;20421;-63
2023/03/05 07:33:26;;;;;;;2.80;1.43;;;2.80;99.90;;;;;;4986054;28;20466;-65
2023/03/05 07:35:51;;;;;;;2.23;1.40;;;2.70;99.90;;;;;;4975021;28;20750;-64
2023/03/05 07:38:17;;;;;;;3.40;1.47;;;2.80;99.90;;;;;;4971462;28;20468;-66
2023/03/05 07:40:42;;;;;;;2.00;1.50;;;2.80;99.90;;;;;;4977998;28;20177;-64
2023/03/05 07:43:08;;;;;;;2.60;1.53;;;2.80;99.90;;;;;;4973413;28;20671;-65
2023/03/05 07:45:34;;;;;;;1.60;1.30;;;3.00;99.90;;;;;;4981168;28;20252;-64
2023/03/05 07:47:59;;;;;;;3.30;1.47;;;3.00;99.90;;;;;;4974121;28;20245;-64
2023/03/05 07:50:25;;;;;;;2.20;1.23;;;2.80;99.90;;;;;;4981377;28;20169;-65
2023/03/05 07:52:50;;;;;;;1.57;1.13;;;2.90;99.90;;;;;;4981432;28;20256;-65
2023/03/05 07:55:16;;;;;;;1.27;1.17;;;2.90;99.90;;;;;;4973478;28;20181;-64
2023/03/05 07:57:42;;;;;;;6.00;1.40;;;3.00;99.90;;;;;;4983141;28;20629;-64
2023/03/05 08:00:08;;;;;;;3.00;1.87;;;3.20;99.90;;;;;;4979310;28;20209;-63
2023/03/05 08:02:33;;;;;;;2.47;1.70;;;3.30;99.90;;;;;;4982957;28;20174;-64
2023/03/05 08:04:59;;;;;;;3.20;1.10;;;3.20;99.90;;;;;;4967749;28;20414;-64
2023/03/05 08:07:25;;;;;;;3.67;1.20;;;3.30;99.90;;;;;;4981027;28;20212;-65
2023/03/05 08:09:50;;;;;;;4.77;1.60;;;3.50;99.90;;;;;;4976262;28;20185;-65
2023/03/05 08:12:16;;;;;;;1.63;1.40;;;3.80;99.90;;;;;;4968968;28;20332;-63
2023/03/05 08:14:41;;;;;;;7.47;1.63;;;3.60;99.90;;;;;;4983762;28;20174;-66
2023/03/05 08:17:07;;;;;;;4.20;1.40;;;3.80;99.90;;;;;;4977023;28;20672;-64
2023/03/05 08:19:33;;;;;;;1.80;1.10;;;3.60;99.90;;;;;;4978035;28;20176;-64
2023/03/05 08:21:59;;;;;;;2.50;1.93;;;3.50;99.90;;;;;;4983645;28;20178;-64
2023/03/05 08:24:28;;;;;;;2.97;1.27;;;3.70;99.90;;;;;;4984813;28;20618;-64
2023/03/05 08:26:55;;;;;;;1.50;1.40;;;4.00;99.90;;;;;;4984775;28;20441;-64
2023/03/05 08:29:21;;;;;;;1.10;0.93;;;4.00;99.90;;;;;;4980585;28;20427;-64
2023/03/05 08:31:48;;;;;;;2.20;1.27;;;4.40;99.90;;;;;;4981282;28;20947;-64
2023/03/05 08:34:14;;;;;;;4.40;1.77;;;4.60;99.90;;;;;;4983295;28;20944;-64
2023/03/05 08:36:39;;;;;;;7.00;2.03;;;5.20;99.90;;;;;;4985108;28;20457;-65
2023/03/05 08:39:07;;;;;;;4.60;1.30;;;6.20;99.90;;;;;;4977887;28;20470;-65
2023/03/05 08:41:33;;;;;;;4.97;1.47;;;5.80;99.90;;;;;;4976803;28;20582;-64
2023/03/05 08:43:58;;;;;;;2.90;1.60;;;6.00;99.90;;;;;;4982634;28;20426;-64
2023/03/05 08:46:24;;;;;;;2.83;1.27;;;5.30;99.90;;;;;;4978087;28;20482;-65
2023/03/05 08:48:50;;;;;;;2.03;1.10;;;4.90;99.90;;;;;;4986022;28;20182;-66
2023/03/05 08:51:21;;;;;;;5.10;1.70;;;4.70;99.90;;;;;;4976307;28;20654;-65
2023/03/05 08:53:46;;;;;;;3.60;1.17;;;4.60;99.90;;;;;;4979755;28;20205;-65
2023/03/05 08:56:13;;;;;;;4.30;1.73;;;4.20;99.90;;;;;;4976547;28;20443;-64
2023/03/05 08:58:39;;;;;;;2.63;1.20;;;4.70;99.90;;;;;;4974551;28;20170;-65
2023/03/05 09:01:05;;;;;;;5.70;1.10;;;4.70;99.90;;;;;;4981605;28;20432;-65
2023/03/05 09:03:31;;;;;;;6.13;2.10;;;4.90;99.90;;;;;;4985287;28;20400;-65
2023/03/05 09:06:01;;;;;;;5.30;1.30;;;5.10;99.90;;;;;;4982680;28;20244;-67
2023/03/05 09:08:28;;;;;;;1.73;0.97;;;5.10;99.90;;;;;;4981409;28;20194;-66
2023/03/05 09:10:53;;;;;;;4.23;0.97;;;4.90;99.90;;;;;;4971744;28;20443;-65
2023/03/05 09:13:19;;;;;;;2.27;1.10;;;5.40;99.90;;;;;;4981174;28;20445;-66
2023/03/05 09:15:44;;;;;;;5.13;1.50;;;5.20;99.90;;;;;;4979756;28;20545;-65
2023/03/05 09:18:10;;;;;;;5.43;1.50;;;5.50;99.90;;;;;;4975194;28;20215;-65
2023/03/05 09:20:37;;;;;;;2.10;1.50;;;5.60;99.90;;;;;;4975206;28;20169;-64
2023/03/05 09:23:03;;;;;;;6.40;1.33;;;5.40;99.90;;;;;;4975572;28;20224;-64
2023/03/05 09:25:29;;;;;;;4.70;1.77;;;5.40;99.90;;;;;;4980432;28;20428;-67
2023/03/05 09:27:55;;;;;;;6.40;1.40;;;4.90;99.90;;;;;;4984259;28;20498;-64
2023/03/05 09:30:20;;;;;;;3.07;2.40;;;4.70;99.90;;;;;;4983285;28;20418;-64
2023/03/05 09:32:46;;;;;;;2.70;1.37;;;4.50;99.90;;;;;;4981181;28;20181;-64
2023/03/05 09:35:11;;;;;;;1.47;1.10;;;4.60;99.90;;;;;;4978724;28;20236;-66
2023/03/05 09:37:37;;;;;;;8.63;1.23;;;4.60;99.90;;;;;;4981479;28;20201;-64
2023/03/05 09:40:03;;;;;;;1.73;1.43;;;4.50;99.90;;;;;;4984190;28;20577;-63
2023/03/05 09:42:53;;;;;;;3.13;1.30;;;4.40;99.90;;;;;;4981510;28;20177;-64
2023/03/05 09:45:38;;;;;;;4.30;1.53;;;4.20;99.90;;;;;;4981377;28;20487;-64
2023/03/05 09:48:28;;;;;;;2.60;1.93;;;4.00;99.90;;;;;;4977104;28;20750;-65
2023/03/05 09:51:02;;;;;;;8.70;1.47;;;4.00;99.90;;;;;;4978156;28;20414;-64
2023/03/05 09:53:48;;;;;;;2.10;1.60;;;4.00;99.90;;;;;;4976336;28;20418;-64
2023/03/05 09:56:19;;;;;;;3.57;1.20;;;4.10;99.90;;;;;;4979858;28;20417;-64
2023/03/05 09:58:58;;;;;;;1.53;1.40;;;4.10;99.90;;;;;;4983792;28;20514;-65
2023/03/05 10:01:44;;;;;;;2.77;1.40;;;4.30;99.90;;;;;;4983214;28;20487;-65
2023/03/05 10:04:19;;;;;;;4.40;1.57;;;4.50;99.90;;;;;;4974900;28;20409;-65
2023/03/05 10:07:01;;;;;;;3.60;1.50;;;4.60;99.90;;;;;;4983372;28;20463;-65
2023/03/05 10:09:46;;;;;;;8.93;1.23;;;4.50;99.90;;;;;;4972830;28;20413;-66
2023/03/05 10:12:41;;;;;;;4.27;1.30;;;4.80;99.90;;;;;;4986395;28;20419;-65
2023/03/05 10:15:34;;;;;;;3.43;1.73;;;4.80;99.90;;;;;;4975599;28;20476;-65
2023/03/05 10:18:06;;;;;;;5.27;1.60;;;4.50;99.90;;;;;;4979663;28;20563;-64
2023/03/05 10:21:02;;;;;;;3.40;1.50;;;4.60;99.90;;;;;;4976487;28;20408;-64
2023/03/05 10:23:48;;;;;;;1.50;1.30;;;4.40;99.90;;;;;;4969846;28;20409;-64
2023/03/05 10:26:34;;;;;;;1.70;1.40;;;4.50;99.90;;;;;;4978566;28;20599;-65
2023/03/05 10:29:20;;;;;;;1.97;1.20;;;4.60;99.90;;;;;;4976859;28;20784;-65
2023/03/05 10:31:55;;;;;;;7.93;1.43;;;4.60;99.90;;;;;;4973927;28;20825;-64
2023/03/05 10:34:42;;;;;;;1.87;1.10;;;4.30;99.90;;;;;;4976048;28;20410;-63
2023/03/05 10:37:40;;;;;;;2.53;1.30;;;4.40;99.90;;;;;;4970987;28;20576;-65
2023/03/05 10:40:23;;;;;;;3.80;1.57;;;4.40;99.90;;;;;;4975398;28;20463;-65
2023/03/05 10:43:06;;;;;;;3.23;1.40;;;4.30;99.90;;;;;;4965242;28;20400;-66
2023/03/05 10:45:40;;;;;;;2.50;1.27;;;4.30;99.90;;;;;;4982913;28;20435;-66
2023/03/05 10:48:27;;;;;;;1.43;1.33;;;4.50;99.90;;;;;;4984496;28;20428;-65
2023/03/05 10:51:03;;;;;;;2.67;1.50;;;4.40;99.90;;;;;;4974426;28;20417;-64
2023/03/05 10:53:51;;;;;;;3.50;1.70;;;4.10;99.90;;;;;;4967666;28;20425;-64
2023/03/05 10:56:20;;;;;;;1.57;1.30;;;4.30;99.90;;;;;;4978359;28;20789;-65
2023/03/05 10:58:46;;;;;;;2.70;1.73;;;4.10;99.90;;;;;;4978695;28;20922;-64
2023/03/05 11:01:11;;;;;;;1.93;1.77;;;4.10;99.90;;;;;;4980271;28;20428;-66
2023/03/05 11:04:24;;;;;;;4.50;1.63;;;4.30;99.90;;;;;;4972354;28;20522;-66
2023/03/05 11:06:50;;;;;;;2.17;1.60;;;4.40;99.90;;;;;;4977970;28;20220;-66
2023/03/05 11:09:31;;;;;;;2.77;1.43;;;4.20;99.90;;;;;;4979916;28;20482;-65
2023/03/05 11:12:07;;;;;;;3.03;1.30;;;4.30;99.90;;;;;;4979179;28;20544;-66
2023/03/05 11:14:34;;;;;;;1.70;1.60;;;4.30;99.90;;;;;;4986339;28;20424;-65
2023/03/05 11:17:02;;;;;;;3.70;1.50;;;4.40;99.90;;;;;;4980291;28;20822;-66
2023/03/05 11:19:32;;;;;;;1.13;1.00;;;4.60;99.90;;;;;;4959477;28;20411;-64
2023/03/05 11:22:13;;;;;;;7.37;2.10;;;4.40;99.90;;;;;;4975248;28;20457;-66
2023/03/05 11:24:40;;;;;;;1.57;1.40;;;4.20;99.90;;;;;;4964513;28;20404;-66
2023/03/05 11:27:49;;;;;;;3.40;1.80;;;4.40;99.90;;;;;;4976508;28;20441;-66
2023/03/05 11:30:32;;;;;;;3.17;2.03;;;4.40;99.90;;;;;;4941764;29;21018;-66
2023/03/05 11:33:19;;;;;;;2.40;1.43;;;4.40;99.90;;;;;;4979501;28;20442;-64
2023/03/05 11:35:46;;;;;;;2.43;1.70;;;4.50;99.90;;;;;;4974984;28;20422;-64
2023/03/05 11:38:43;;;;;;;2.10;1.40;;;4.40;99.90;;;;;;4977523;28;20469;-65
2023/03/05 11:41:09;;;;;;;3.37;2.07;;;4.70;99.90;;;;;;4971278;28;20461;-66
2023/03/05 11:43:37;;;;;;;2.10;1.30;;;4.80;99.90;;;;;;4983600;28;20508;-64
2023/03/05 11:46:04;;;;;;;3.40;1.63;;;4.80;99.90;;;;;;4970682;28;20519;-65
2023/03/05 11:48:34;;;;;;;4.03;1.80;;;5.00;99.90;;;;;;4990083;28;20452;-68
2023/03/05 11:51:05;;;;;;;2.40;1.50;;;5.00;99.90;;;;;;4980435;28;20463;-66
2023/03/05 11:53:34;;;;;;;1.30;1.20;;;5.10;99.90;;;;;;4963996;28;20414;-66
2023/03/05 11:56:23;;;;;;;7.27;1.93;;;5.10;99.90;;;;;;4984393;28;20455;-65
2023/03/05 11:59:00;;;;;;;2.90;1.37;;;5.40;99.90;;;;;;4970630;28;20482;-64
2023/03/05 12:01:30;;;;;;;2.90;1.53;;;5.00;99.90;;;;;;4982877;28;20443;-66
2023/03/05 12:03:56;;;;;;;3.30;1.77;;;5.00;99.90;;;;;;4979442;28;20409;-65
2023/03/05 12:06:28;;;;;;;1.70;1.40;;;5.10;99.90;;;;;;4984924;28;20431;-66
2023/03/05 12:08:58;;;;;;;3.03;1.57;;;4.90;99.90;;;;;;4986898;28;20830;-66
2023/03/05 12:11:30;;;;;;;2.20;2.00;;;4.90;99.90;;;;;;4981540;28;20495;-64
2023/03/05 12:14:13;;;;;;;2.80;1.67;;;5.20;99.90;;;;;;4985197;28;20412;-64
2023/03/05 12:17:03;;;;;;;3.37;1.47;;;5.30;99.90;;;;;;4976321;28;21040;-65
2023/03/05 12:19:49;;;;;;;2.40;1.70;;;5.30;99.90;;;;;;4969962;28;21201;-65
2023/03/05 12:22:18;;;;;;;1.77;1.40;;;5.00;99.90;;;;;;4982218;28;20409;-64
2023/03/05 12:24:44;;;;;;;8.00;1.97;;;5.20;99.90;;;;;;4985647;28;20417;-64
2023/03/05 12:27:13;;;;;;;1.77;1.63;;;5.40;99.90;;;;;;4984211;28;20491;-64
2023/03/05 12:29:43;;;;;;;2.53;1.47;;;5.10;99.90;;;;;;4980991;28;20182;-64
2023/03/05 12:32:21;;;;;;;5.13;2.23;;;4.80;99.90;;;;;;4982838;28;20556;-64
2023/03/05 12:34:54;;;;;;;2.10;1.50;;;4.90;99.90;;;;;;4985769;28;20903;-64
2023/03/05 12:37:20;;;;;;;4.10;1.57;;;5.20;99.90;;;;;;4975312;28;20911;-64
2023/03/05 12:39:59;;;;;;;1.40;1.20;;;5.20;99.90;;;;;;4985437;28;20420;-64
2023/03/05 12:42:28;;;;;;;2.00;1.33;;;5.10;99.90;;;;;;4977129;28;20173;-66
2023/03/05 12:45:15;;;;;;;3.27;1.30;;;5.10;99.90;;;;;;4981584;28;20412;-64
2023/03/05 12:47:43;;;;;;;2.53;2.00;;;4.80;99.90;;;;;;4985411;28;20894;-64
2023/03/05 12:50:27;;;;;;;1.30;1.20;;;4.90;99.90;;;;;;4977154;28;20737;-65
2023/03/05 12:52:57;;;;;;;2.33;1.83;;;5.10;99.90;;;;;;4977047;28;20427;-64
2023/03/05 12:55:32;;;;;;;1.40;1.30;;;5.00;99.90;;;;;;4987449;28;20427;-65
2023/03/05 12:58:21;;;;;;;2.07;1.40;;;5.10;99.90;;;;;;4976618;28;20456;-65
2023/03/05 13:00:51;;;;;;;4.33;1.30;;;4.90;99.90;;;;;;4977319;28;20802;-65
2023/03/05 13:03:25;;;;;;;3.47;1.73;;;5.20;99.90;;;;;;4977101;28;20881;-64
2023/03/05 13:05:57;;;;;;;3.97;1.80;;;5.30;99.90;;;;;;4982638;28;20427;-65
2023/03/05 13:08:24;;;;;;;1.93;1.73;;;5.40;99.90;;;;;;5005494;22;20532;-69
2023/03/05 13:11:05;;;;;;;2.10;1.83;;;5.50;99.90;;;;;;5031601;28;20430;-68
2023/03/05 13:13:41;;;;;;;2.80;1.83;;;5.40;99.90;;;;;;5030640;28;20443;-68